Time;durP1;ratioP1;P1;durP2;ratioP2;P2;SDS_P1;SDS_P2;PMS_P1;PMS_P2;Temp;Humidity;BMP_temperature;BMP_pressure;BME280_temperature;BME280_humidity;BME280_pressure;Samples;Min_cycle;Max_cycle;Signal;HPM_P1;HPM_P2
2022/08/10 00:00:21;;;;;;;3.80;3.00;;;22.70;50.60;;;;;;5075230;28;20444;-78
2022/08/10 00:02:49;;;;;;;3.37;2.83;;;22.60;50.60;;;;;;5074461;28;20436;-79
2022/08/10 00:05:16;;;;;;;3.20;2.80;;;22.60;50.70;;;;;;5076021;28;20448;-79
2022/08/10 00:07:42;;;;;;;3.53;2.53;;;22.60;50.90;;;;;;5068891;28;20437;-79
2022/08/10 00:10:12;;;;;;;5.53;3.10;;;22.60;51.30;;;;;;5066974;28;20451;-79
2022/08/10 00:12:39;;;;;;;3.17;2.87;;;22.50;51.40;;;;;;5067150;28;20484;-78
2022/08/10 00:15:07;;;;;;;2.93;2.73;;;22.50;51.60;;;;;;5066653;28;20439;-79
2022/08/10 00:17:34;;;;;;;7.23;2.97;;;22.50;51.90;;;;;;5073249;28;20507;-78
2022/08/10 00:20:01;;;;;;;5.30;2.67;;;22.40;52.00;;;;;;5066952;28;20445;-79
2022/08/10 00:22:27;;;;;;;5.40;2.90;;;22.30;52.20;;;;;;5067114;28;20479;-79
2022/08/10 00:24:56;;;;;;;5.67;3.23;;;22.30;52.60;;;;;;5070779;28;20921;-78
2022/08/10 00:27:24;;;;;;;3.27;2.97;;;22.30;52.70;;;;;;5062957;28;20448;-78
2022/08/10 00:29:51;;;;;;;3.80;3.07;;;22.20;52.90;;;;;;5071697;28;20440;-78
2022/08/10 00:32:17;;;;;;;2.93;2.60;;;22.10;53.00;;;;;;5072031;28;20480;-78
2022/08/10 00:34:45;;;;;;;3.00;2.60;;;22.10;53.10;;;;;;5065159;28;20448;-78
2022/08/10 00:37:12;;;;;;;3.27;2.93;;;22.10;53.00;;;;;;5066573;28;20893;-78
2022/08/10 00:39:39;;;;;;;5.50;3.27;;;22.00;53.00;;;;;;5066864;28;21145;-79
2022/08/10 00:42:07;;;;;;;3.30;2.67;;;22.10;53.10;;;;;;5078768;28;20459;-78
2022/08/10 00:44:35;;;;;;;3.40;3.10;;;22.00;52.90;;;;;;5072471;28;20939;-79
2022/08/10 00:47:02;;;;;;;2.67;2.40;;;22.00;53.20;;;;;;5076094;28;20866;-78
2022/08/10 00:49:29;;;;;;;4.73;3.40;;;22.00;53.20;;;;;;5076307;28;20447;-78
2022/08/10 00:51:56;;;;;;;3.40;2.87;;;21.90;53.30;;;;;;5080888;28;20479;-78
2022/08/10 00:54:23;;;;;;;7.07;3.73;;;21.90;53.40;;;;;;5080124;28;20443;-79
2022/08/10 00:56:50;;;;;;;5.13;3.33;;;21.90;53.40;;;;;;5075437;28;20451;-78
2022/08/10 00:59:17;;;;;;;3.90;3.20;;;21.90;53.60;;;;;;5073775;28;20452;-78
2022/08/10 01:01:45;;;;;;;3.60;2.90;;;21.80;53.70;;;;;;5073370;28;20513;-78
2022/08/10 01:04:12;;;;;;;3.23;2.60;;;21.80;53.80;;;;;;5073545;28;20479;-78
2022/08/10 01:06:51;;;;;;;4.37;2.97;;;21.70;53.70;;;;;;5072641;28;20471;-78
2022/08/10 01:09:27;;;;;;;5.40;3.10;;;21.70;53.90;;;;;;5073279;28;20960;-78
2022/08/10 01:12:02;;;;;;;2.83;2.50;;;21.70;54.00;;;;;;5073366;28;20536;-79
2022/08/10 01:14:34;;;;;;;3.60;3.10;;;21.60;54.10;;;;;;5073469;28;20825;-78
2022/08/10 01:17:08;;;;;;;5.47;2.90;;;21.60;54.20;;;;;;5076918;28;20459;-78
2022/08/10 01:19:53;;;;;;;3.30;2.77;;;21.60;54.40;;;;;;5075409;28;20504;-78
2022/08/10 01:22:35;;;;;;;3.40;2.97;;;21.50;54.60;;;;;;5075125;28;20468;-79
2022/08/10 01:25:32;;;;;;;3.37;3.07;;;21.50;54.70;;;;;;5076944;28;20862;-79
2022/08/10 01:28:09;;;;;;;2.97;2.77;;;21.50;54.80;;;;;;5073404;28;20455;-78
2022/08/10 01:30:38;;;;;;;5.73;3.07;;;21.50;55.00;;;;;;5075171;28;20471;-78
2022/08/10 01:33:09;;;;;;;6.50;2.97;;;21.50;55.00;;;;;;5074837;28;20483;-79
2022/08/10 01:35:41;;;;;;;4.30;2.80;;;21.40;55.10;;;;;;5079522;28;20448;-78
2022/08/10 01:38:13;;;;;;;2.93;2.63;;;21.40;55.40;;;;;;5086132;28;20455;-78
2022/08/10 01:40:45;;;;;;;3.10;2.90;;;21.40;55.60;;;;;;5083116;28;20475;-79
2022/08/10 01:43:14;;;;;;;3.67;3.03;;;21.30;55.70;;;;;;5077905;28;20505;-78
2022/08/10 01:45:47;;;;;;;2.93;2.63;;;21.30;55.90;;;;;;5076855;28;20541;-78
2022/08/10 01:48:27;;;;;;;2.97;2.67;;;21.30;55.90;;;;;;5077424;28;20501;-79
2022/08/10 01:50:58;;;;;;;3.10;2.87;;;21.30;56.60;;;;;;5077171;28;20475;-79
2022/08/10 01:53:28;;;;;;;3.53;2.73;;;21.20;56.10;;;;;;5077623;28;21042;-79
2022/08/10 01:55:57;;;;;;;4.97;3.20;;;21.30;56.20;;;;;;5077617;28;20455;-78
2022/08/10 01:58:26;;;;;;;3.90;3.50;;;21.30;56.30;;;;;;5074684;28;20464;-78
2022/08/10 02:00:55;;;;;;;4.13;3.20;;;21.30;56.30;;;;;;5074773;28;20475;-78
2022/08/10 02:03:24;;;;;;;5.07;2.83;;;21.30;56.50;;;;;;5073981;28;20505;-78
2022/08/10 02:05:55;;;;;;;2.83;2.63;;;21.20;56.60;;;;;;5073958;28;20448;-78
2022/08/10 02:08:23;;;;;;;3.13;2.50;;;21.20;56.80;;;;;;5074528;28;20447;-78
2022/08/10 02:10:52;;;;;;;3.10;2.80;;;21.20;56.80;;;;;;5074290;28;20472;-78
2022/08/10 02:13:20;;;;;;;3.23;2.93;;;21.10;56.90;;;;;;5074266;28;20479;-78
2022/08/10 02:15:50;;;;;;;4.43;3.10;;;21.10;57.10;;;;;;5073815;28;20970;-78
2022/08/10 02:18:21;;;;;;;3.90;2.97;;;21.10;57.10;;;;;;5073792;28;20794;-78
2022/08/10 02:20:51;;;;;;;3.20;2.90;;;21.20;57.10;;;;;;5073863;28;20468;-78
2022/08/10 02:23:24;;;;;;;2.90;2.60;;;21.10;57.20;;;;;;5074275;28;20491;-78
2022/08/10 02:25:53;;;;;;;4.20;2.77;;;21.10;57.90;;;;;;5073835;28;20459;-78
2022/08/10 02:28:22;;;;;;;5.10;3.00;;;21.00;57.50;;;;;;5075572;28;20447;-78
2022/08/10 02:30:50;;;;;;;3.50;3.20;;;20.90;57.80;;;;;;5077138;28;20471;-78
2022/08/10 02:33:21;;;;;;;3.47;3.17;;;20.90;58.10;;;;;;5073561;28;20483;-78
2022/08/10 02:35:51;;;;;;;2.80;2.60;;;20.80;58.30;;;;;;5073707;28;20448;-78
2022/08/10 02:38:21;;;;;;;3.80;3.50;;;20.80;58.60;;;;;;5073833;28;20860;-78
2022/08/10 02:40:52;;;;;;;4.10;3.10;;;20.70;59.10;;;;;;5074461;28;20463;-78
2022/08/10 02:43:28;;;;;;;4.27;3.90;;;20.60;59.40;;;;;;5073418;28;20444;-78
2022/08/10 02:46:05;;;;;;;3.20;2.90;;;20.60;59.60;;;;;;5072626;28;20966;-78
2022/08/10 02:48:40;;;;;;;3.50;3.20;;;20.50;59.40;;;;;;5074123;28;20864;-78
2022/08/10 02:51:14;;;;;;;3.47;3.17;;;20.60;59.60;;;;;;5074478;28;20509;-78
2022/08/10 02:53:47;;;;;;;4.17;3.60;;;20.60;59.60;;;;;;5074417;28;20505;-78
2022/08/10 02:56:22;;;;;;;4.63;3.73;;;20.50;59.80;;;;;;5073056;28;20870;-78
2022/08/10 02:58:54;;;;;;;3.17;2.90;;;20.50;60.00;;;;;;5073999;28;20550;-78
2022/08/10 03:01:26;;;;;;;5.03;3.60;;;20.50;60.20;;;;;;5074425;28;20517;-78
2022/08/10 03:03:58;;;;;;;5.87;3.53;;;20.40;60.30;;;;;;5076583;28;20440;-78
2022/08/10 03:06:32;;;;;;;3.73;3.43;;;20.40;60.20;;;;;;5077931;28;20473;-78
2022/08/10 03:08:59;;;;;;;6.33;3.67;;;20.50;60.30;;;;;;5075486;28;20440;-78
2022/08/10 03:11:30;;;;;;;4.00;3.60;;;20.40;60.50;;;;;;5077028;28;20503;-78
2022/08/10 03:13:59;;;;;;;4.30;3.57;;;20.40;60.90;;;;;;5077262;28;20788;-78
2022/08/10 03:16:27;;;;;;;7.30;4.07;;;20.30;61.10;;;;;;5077149;28;20897;-78
2022/08/10 03:18:57;;;;;;;7.43;3.40;;;20.30;61.20;;;;;;5076713;28;20489;-78
2022/08/10 03:21:26;;;;;;;6.67;3.80;;;20.30;61.20;;;;;;5076324;28;20456;-78
2022/08/10 03:23:54;;;;;;;3.40;3.00;;;20.30;61.40;;;;;;5075885;28;20448;-78
2022/08/10 03:26:22;;;;;;;3.90;3.33;;;20.30;61.00;;;;;;5076327;28;20440;-78
2022/08/10 03:28:48;;;;;;;6.30;3.47;;;20.30;61.50;;;;;;5076994;28;20448;-78
2022/08/10 03:31:16;;;;;;;3.93;3.30;;;20.30;61.70;;;;;;5079885;28;20464;-78
2022/08/10 03:33:44;;;;;;;5.80;3.77;;;20.30;61.70;;;;;;5082816;28;21013;-78
2022/08/10 03:36:12;;;;;;;3.83;3.20;;;20.30;62.20;;;;;;5080490;28;20452;-78
2022/08/10 03:38:40;;;;;;;4.63;3.77;;;20.20;62.40;;;;;;5084145;28;20538;-78
2022/08/10 03:41:11;;;;;;;5.00;3.57;;;20.20;62.40;;;;;;5076328;28;20498;-78
2022/08/10 03:43:40;;;;;;;5.87;3.23;;;20.20;62.30;;;;;;5075615;28;20440;-78
2022/08/10 03:46:09;;;;;;;6.23;3.43;;;20.20;62.60;;;;;;5076743;28;20455;-78
2022/08/10 03:48:38;;;;;;;4.73;4.00;;;20.10;63.20;;;;;;5076628;28;20443;-78
2022/08/10 03:51:06;;;;;;;5.40;3.60;;;20.10;63.10;;;;;;5076371;28;20464;-78
2022/08/10 03:53:34;;;;;;;4.10;3.70;;;20.10;63.30;;;;;;5077360;28;20553;-78
2022/08/10 03:56:02;;;;;;;5.27;3.60;;;20.00;63.40;;;;;;5075880;28;20509;-78
2022/08/10 03:58:29;;;;;;;4.53;3.80;;;20.00;63.70;;;;;;5076442;28;20448;-78
2022/08/10 04:00:56;;;;;;;4.77;4.03;;;20.00;63.70;;;;;;5082215;28;20460;-78
2022/08/10 04:03:24;;;;;;;4.57;4.17;;;20.00;63.90;;;;;;5082034;28;20586;-78
2022/08/10 04:05:51;;;;;;;9.93;3.97;;;20.00;64.10;;;;;;5080831;28;20455;-78
2022/08/10 04:08:18;;;;;;;5.80;3.80;;;20.00;64.10;;;;;;5078786;28;20822;-79
2022/08/10 04:10:46;;;;;;;4.73;4.00;;;20.00;64.30;;;;;;5076423;28;20868;-78
2022/08/10 04:13:13;;;;;;;4.33;4.03;;;19.90;64.60;;;;;;5075463;28;20870;-78
2022/08/10 04:15:39;;;;;;;5.83;3.90;;;20.00;64.90;;;;;;5074969;28;20497;-78
2022/08/10 04:18:06;;;;;;;5.30;3.90;;;19.90;65.10;;;;;;5075054;28;20474;-78
2022/08/10 04:20:38;;;;;;;6.70;3.77;;;19.90;65.60;;;;;;5073864;28;20837;-77
2022/08/10 04:23:08;;;;;;;4.13;3.73;;;19.80;66.10;;;;;;5077782;28;20451;-77
2022/08/10 04:25:35;;;;;;;6.03;4.27;;;19.80;66.50;;;;;;5076937;28;20440;-78
2022/08/10 04:28:04;;;;;;;6.80;3.90;;;19.80;67.10;;;;;;5075895;28;20932;-78
2022/08/10 04:30:32;;;;;;;5.00;3.90;;;19.80;67.40;;;;;;5076586;28;20506;-78
2022/08/10 04:33:02;;;;;;;4.57;3.47;;;19.70;67.80;;;;;;5087866;28;20483;-78
2022/08/10 04:35:29;;;;;;;4.90;3.87;;;19.70;68.00;;;;;;5081152;28;20444;-79
2022/08/10 04:37:57;;;;;;;8.13;4.10;;;19.80;68.00;;;;;;5080600;28;20448;-79
2022/08/10 04:40:25;;;;;;;3.67;3.30;;;19.80;68.10;;;;;;5084943;28;20459;-79
2022/08/10 04:42:52;;;;;;;8.83;3.97;;;19.80;68.20;;;;;;5083001;28;20443;-79
2022/08/10 04:45:20;;;;;;;3.80;3.50;;;19.90;68.10;;;;;;5078706;28;20559;-79
2022/08/10 04:47:47;;;;;;;6.80;3.80;;;19.90;67.90;;;;;;5079756;28;20455;-79
2022/08/10 04:50:13;;;;;;;3.83;3.53;;;19.90;67.50;;;;;;5074989;28;20439;-78
2022/08/10 04:52:40;;;;;;;4.30;3.97;;;19.90;67.70;;;;;;5075340;28;20483;-78
2022/08/10 04:55:07;;;;;;;6.27;3.70;;;19.90;67.70;;;;;;5075299;28;20448;-79
2022/08/10 04:57:34;;;;;;;7.23;3.97;;;19.90;67.90;;;;;;5081121;28;20455;-78
2022/08/10 05:00:00;;;;;;;3.87;3.33;;;19.90;68.30;;;;;;5082305;28;20481;-78
2022/08/10 05:02:28;;;;;;;4.07;3.17;;;20.00;68.60;;;;;;5073269;28;20474;-78
2022/08/10 05:04:55;;;;;;;4.80;3.60;;;20.20;68.10;;;;;;5072847;28;20443;-78
2022/08/10 05:07:22;;;;;;;4.83;4.00;;;20.70;66.50;;;;;;5073122;28;20448;-78
2022/08/10 05:09:53;;;;;;;4.10;3.60;;;21.10;64.60;;;;;;5073152;28;20435;-78
2022/08/10 05:12:19;;;;;;;3.90;3.40;;;21.60;63.00;;;;;;5073238;28;20532;-78
2022/08/10 05:14:46;;;;;;;7.80;4.57;;;22.10;61.10;;;;;;5075126;28;20444;-78
2022/08/10 05:17:13;;;;;;;5.87;4.50;;;22.40;59.60;;;;;;5076465;28;20436;-79
2022/08/10 05:19:41;;;;;;;4.70;3.50;;;22.80;58.70;;;;;;5076334;28;20448;-79
2022/08/10 05:22:08;;;;;;;4.37;3.27;;;23.20;57.70;;;;;;5075470;28;20464;-78
2022/08/10 05:24:34;;;;;;;3.73;3.27;;;23.60;57.00;;;;;;5075830;28;20839;-78
2022/08/10 05:27:01;;;;;;;6.20;3.90;;;23.80;56.20;;;;;;5087394;28;20427;-77
2022/08/10 05:29:28;;;;;;;6.80;3.20;;;23.90;55.50;;;;;;5090107;28;20477;-78
2022/08/10 05:31:55;;;;;;;5.90;3.93;;;24.10;55.30;;;;;;5078741;28;20495;-78
2022/08/10 05:34:25;;;;;;;3.70;3.37;;;24.40;54.80;;;;;;5077059;28;20486;-78
2022/08/10 05:36:54;;;;;;;7.20;3.30;;;24.80;53.80;;;;;;5076363;28;20448;-78
2022/08/10 05:39:22;;;;;;;5.10;3.80;;;25.20;53.10;;;;;;5076315;28;20471;-78
2022/08/10 05:41:51;;;;;;;4.53;3.13;;;25.50;52.10;;;;;;5076193;28;20499;-79
2022/08/10 05:44:17;;;;;;;5.30;3.57;;;25.90;51.60;;;;;;5077153;28;20451;-78
2022/08/10 05:46:45;;;;;;;5.43;3.03;;;26.20;50.80;;;;;;5077085;28;20454;-78
2022/08/10 05:49:12;;;;;;;6.30;3.53;;;26.40;50.20;;;;;;5075892;28;20572;-78
2022/08/10 05:51:39;;;;;;;6.53;3.23;;;26.70;50.10;;;;;;5075749;28;20474;-79
2022/08/10 05:54:13;;;;;;;3.97;3.67;;;26.90;49.10;;;;;;5077893;28;20509;-79
2022/08/10 05:56:42;;;;;;;3.60;3.30;;;27.20;49.40;;;;;;5075683;28;20455;-77
2022/08/10 05:59:09;;;;;;;3.60;3.30;;;27.60;47.80;;;;;;5072989;28;20451;-80
2022/08/10 06:01:39;;;;;;;4.33;3.47;;;27.80;47.30;;;;;;5074113;28;20471;-78
2022/08/10 06:04:08;;;;;;;5.33;3.13;;;28.10;46.80;;;;;;5073839;28;20976;-78
2022/08/10 06:06:36;;;;;;;4.50;4.10;;;28.40;46.10;;;;;;5074790;28;20946;-78
2022/08/10 06:09:04;;;;;;;3.50;3.20;;;28.70;45.30;;;;;;5078709;28;20764;-78
2022/08/10 06:11:33;;;;;;;7.03;3.30;;;28.90;44.80;;;;;;5075637;28;20466;-79
2022/08/10 06:16:47;;;;;;;6.80;3.80;;;29.60;43.50;;;;;;5056259;28;20423;-78
2022/08/10 06:19:14;;;;;;;7.23;3.30;;;30.10;42.70;;;;;;5083105;28;20500;-79
2022/08/10 06:21:42;;;;;;;4.93;2.93;;;30.20;42.20;;;;;;5078221;28;20463;-79
2022/08/10 06:24:10;;;;;;;4.73;2.67;;;30.40;41.80;;;;;;5077105;28;20809;-78
2022/08/10 06:26:38;;;;;;;4.30;3.40;;;30.90;41.00;;;;;;5075593;28;20444;-78
2022/08/10 06:29:08;;;;;;;6.13;2.90;;;30.40;40.20;;;;;;5074634;28;20433;-78
2022/08/10 06:31:38;;;;;;;4.50;2.73;;;30.20;40.90;;;;;;5074410;28;20487;-78
2022/08/10 06:34:07;;;;;;;3.10;2.80;;;30.40;40.50;;;;;;5073880;28;20479;-78
2022/08/10 06:36:34;;;;;;;2.80;2.60;;;29.80;41.10;;;;;;5073418;28;20939;-78
2022/08/10 06:39:01;;;;;;;3.70;2.93;;;29.10;42.10;;;;;;5073478;28;20956;-78
2022/08/10 06:41:33;;;;;;;4.37;2.60;;;29.50;42.20;;;;;;5074359;28;20467;-78
2022/08/10 06:44:09;;;;;;;2.60;2.40;;;30.00;41.70;;;;;;5074047;28;20452;-78
2022/08/10 06:46:39;;;;;;;3.40;2.50;;;30.20;40.70;;;;;;5077855;28;20446;-79
2022/08/10 06:49:08;;;;;;;4.60;2.30;;;30.40;40.60;;;;;;5064907;28;20444;-78
2022/08/10 06:51:38;;;;;;;4.43;2.80;;;30.40;40.30;;;;;;5084047;28;20471;-79
2022/08/10 06:54:07;;;;;;;3.63;2.50;;;31.00;39.80;;;;;;5079656;28;20540;-79
2022/08/10 06:56:38;;;;;;;3.93;2.53;;;31.50;39.00;;;;;;5079723;28;20443;-79
2022/08/10 06:59:09;;;;;;;3.70;2.70;;;32.30;37.90;;;;;;5079521;28;20451;-80
2022/08/10 07:01:39;;;;;;;3.57;3.00;;;32.40;37.60;;;;;;5079612;28;20470;-80
2022/08/10 07:04:11;;;;;;;2.67;2.47;;;32.60;36.70;;;;;;5079357;28;20449;-79
2022/08/10 07:06:42;;;;;;;3.53;2.67;;;32.40;37.00;;;;;;5079597;28;20442;-79
2022/08/10 07:09:10;;;;;;;2.50;2.20;;;32.50;36.50;;;;;;5079879;28;20448;-79
2022/08/10 07:11:38;;;;;;;4.20;2.93;;;32.70;36.10;;;;;;5083665;28;20471;-80
2022/08/10 07:14:08;;;;;;;4.03;2.20;;;32.80;36.10;;;;;;5082102;28;20489;-78
2022/08/10 07:16:36;;;;;;;3.90;3.20;;;33.00;35.80;;;;;;5085974;28;20560;-79
2022/08/10 07:19:04;;;;;;;4.10;2.33;;;32.60;35.90;;;;;;5093183;28;20531;-78
2022/08/10 07:21:31;;;;;;;3.30;2.27;;;32.30;36.30;;;;;;5090601;28;20521;-79
2022/08/10 07:24:00;;;;;;;3.83;2.23;;;32.40;36.60;;;;;;5080330;28;20458;-79
2022/08/10 07:26:30;;;;;;;2.93;2.60;;;32.70;36.30;;;;;;5079802;28;20455;-80
2022/08/10 07:28:58;;;;;;;2.93;2.20;;;33.30;35.70;;;;;;5085658;28;20447;-80
2022/08/10 07:31:26;;;;;;;4.60;3.77;;;33.60;35.00;;;;;;5092531;28;20477;-80
2022/08/10 07:33:54;;;;;;;4.43;2.23;;;33.60;34.70;;;;;;5086052;28;20486;-80
2022/08/10 07:36:23;;;;;;;3.10;2.63;;;33.70;34.70;;;;;;5088792;28;20447;-81
2022/08/10 07:38:53;;;;;;;3.43;2.70;;;34.40;33.50;;;;;;5083975;28;20449;-78
2022/08/10 07:41:22;;;;;;;6.07;2.67;;;34.20;33.50;;;;;;5079064;28;21180;-79
2022/08/10 07:43:50;;;;;;;2.90;2.40;;;34.20;33.70;;;;;;5083556;28;20438;-80
2022/08/10 07:46:22;;;;;;;5.50;2.73;;;34.30;33.20;;;;;;5088661;28;20446;-78
2022/08/10 07:48:56;;;;;;;3.20;2.27;;;34.30;33.60;;;;;;5086935;28;20444;-78
2022/08/10 07:51:23;;;;;;;3.40;2.30;;;34.80;33.10;;;;;;5083628;28;20480;-78
2022/08/10 07:53:54;;;;;;;5.13;2.57;;;34.70;32.30;;;;;;5081683;28;20493;-81
2022/08/10 07:56:25;;;;;;;2.80;2.30;;;34.50;33.40;;;;;;5078812;28;20469;-79
2022/08/10 07:58:56;;;;;;;3.40;2.47;;;35.30;32.60;;;;;;5079701;28;20445;-78
2022/08/10 08:01:29;;;;;;;5.80;2.30;;;35.00;32.30;;;;;;5076257;28;20881;-79
2022/08/10 08:04:00;;;;;;;3.57;2.37;;;34.60;32.30;;;;;;5078262;28;20543;-79
2022/08/10 08:06:31;;;;;;;4.73;2.33;;;35.20;32.10;;;;;;5077167;28;20455;-79
2022/08/10 08:08:59;;;;;;;3.00;2.33;;;35.90;31.10;;;;;;5078223;28;20885;-80
2022/08/10 08:11:28;;;;;;;5.07;2.70;;;35.80;30.90;;;;;;5079064;28;20496;-79
2022/08/10 08:13:56;;;;;;;8.93;2.40;;;35.90;31.10;;;;;;5083048;28;21072;-79
2022/08/10 08:16:23;;;;;;;4.03;2.43;;;35.70;31.50;;;;;;5077497;28;20450;-79
2022/08/10 08:18:53;;;;;;;3.43;2.60;;;36.30;31.00;;;;;;5077881;28;20451;-79
2022/08/10 08:21:21;;;;;;;2.60;2.27;;;36.70;30.00;;;;;;5077621;28;20505;-80
2022/08/10 08:23:51;;;;;;;2.87;2.57;;;36.20;30.50;;;;;;5077951;28;20916;-79
2022/08/10 08:26:19;;;;;;;4.20;2.40;;;34.60;32.00;;;;;;5078559;28;20504;-79
2022/08/10 08:28:47;;;;;;;4.47;2.27;;;34.60;32.50;;;;;;5079715;28;20446;-80
2022/08/10 08:31:15;;;;;;;3.80;2.70;;;35.50;32.00;;;;;;5077207;28;21043;-87
2022/08/10 08:33:43;;;;;;;2.80;2.37;;;36.30;30.80;;;;;;5076468;28;20532;-88
2022/08/10 08:36:11;;;;;;;4.87;2.70;;;37.40;29.80;;;;;;5076378;28;20452;-87
2022/08/10 08:38:40;;;;;;;3.03;2.37;;;36.40;29.90;;;;;;5073962;28;20446;-87
2022/08/10 08:41:20;;;;;;;4.47;2.67;;;36.20;30.60;;;;;;5078386;28;20856;-87
2022/08/10 08:43:55;;;;;;;2.93;2.30;;;36.60;29.50;;;;;;5076387;28;20522;-87
2022/08/10 08:46:42;;;;;;;2.50;1.90;;;35.70;30.30;;;;;;5075347;28;20452;-87
2022/08/10 08:49:22;;;;;;;3.43;2.30;;;36.80;29.70;;;;;;5076406;28;20454;-88
2022/08/10 08:52:02;;;;;;;3.53;2.03;;;37.00;29.60;;;;;;5083199;28;20500;-87
2022/08/10 08:54:45;;;;;;;3.30;2.10;;;36.80;29.50;;;;;;5080244;28;20479;-87
2022/08/10 08:57:22;;;;;;;3.73;1.77;;;35.90;29.70;;;;;;5081782;28;20485;-87
2022/08/10 09:00:00;;;;;;;2.27;2.07;;;35.70;29.80;;;;;;5088550;28;20504;-87
2022/08/10 09:02:42;;;;;;;6.40;2.20;;;35.90;29.80;;;;;;5083540;28;20453;-87
2022/08/10 09:05:31;;;;;;;4.43;2.70;;;35.50;29.80;;;;;;5075318;28;20443;-87
2022/08/10 09:08:23;;;;;;;2.10;1.90;;;35.30;29.50;;;;;;5081288;28;20492;-87
2022/08/10 09:10:58;;;;;;;5.77;2.27;;;35.20;30.00;;;;;;5084696;28;20888;-87
2022/08/10 09:13:30;;;;;;;4.07;2.10;;;36.00;29.30;;;;;;5097914;28;20433;-85
2022/08/10 09:16:17;;;;;;;2.40;2.20;;;36.40;29.00;;;;;;5097546;28;20506;-87
2022/08/10 09:18:51;;;;;;;3.57;2.10;;;37.10;27.50;;;;;;5060140;28;20541;-88
2022/08/10 09:21:24;;;;;;;2.20;1.90;;;36.20;27.40;;;;;;5064796;28;20486;-85
2022/08/10 09:23:58;;;;;;;10.20;2.40;;;35.30;28.10;;;;;;5055670;28;20440;-87
2022/08/10 09:26:35;;;;;;;3.73;2.20;;;35.40;28.10;;;;;;5053466;28;20486;-87
2022/08/10 09:29:02;;;;;;;2.77;2.10;;;35.20;28.70;;;;;;5065741;28;20448;-88
2022/08/10 09:31:40;;;;;;;3.67;2.13;;;35.60;28.90;;;;;;5089634;28;20477;-87
2022/08/10 09:34:15;;;;;;;2.00;1.80;;;35.20;29.30;;;;;;5070448;28;20480;-87
2022/08/10 09:36:48;;;;;;;3.50;2.03;;;34.90;28.90;;;;;;5076342;28;20450;-88
2022/08/10 09:39:22;;;;;;;3.13;2.00;;;35.60;28.80;;;;;;5085879;28;20452;-87
2022/08/10 09:41:58;;;;;;;3.17;1.70;;;36.50;27.70;;;;;;5090868;28;20451;-87
2022/08/10 09:44:34;;;;;;;5.33;2.17;;;37.00;26.60;;;;;;5076581;28;20446;-87
2022/08/10 09:47:18;;;;;;;2.73;1.80;;;37.80;26.10;;;;;;5066886;28;20445;-87
2022/08/10 09:49:56;;;;;;;3.30;2.00;;;38.10;25.10;;;;;;5075407;28;20448;-87
2022/08/10 09:52:34;;;;;;;2.00;1.80;;;37.40;25.30;;;;;;5082160;28;20465;-88
2022/08/10 09:55:11;;;;;;;5.77;1.90;;;38.00;25.00;;;;;;5081212;28;20474;-87
2022/08/10 09:57:49;;;;;;;2.30;2.00;;;37.90;24.20;;;;;;5069918;28;20446;-88
2022/08/10 10:00:20;;;;;;;2.60;1.80;;;38.30;24.30;;;;;;5090773;28;21095;-87
2022/08/10 10:03:01;;;;;;;2.27;1.80;;;38.70;23.80;;;;;;5076521;28;20515;-88
2022/08/10 10:05:38;;;;;;;2.10;1.67;;;39.40;23.80;;;;;;5076312;28;20445;-88
2022/08/10 10:08:17;;;;;;;4.00;1.83;;;39.10;23.20;;;;;;5067498;28;20442;-87
2022/08/10 10:10:53;;;;;;;2.67;2.10;;;38.00;24.30;;;;;;5081049;28;20459;-87
2022/08/10 10:13:30;;;;;;;2.27;2.07;;;38.10;24.50;;;;;;5077176;28;20924;-87
2022/08/10 10:16:10;;;;;;;2.90;1.60;;;37.60;24.30;;;;;;5075040;28;20526;-87
2022/08/10 10:18:48;;;;;;;2.67;1.60;;;38.20;24.40;;;;;;5057551;28;20459;-88
2022/08/10 10:21:25;;;;;;;2.77;2.00;;;39.10;23.00;;;;;;5082220;28;20575;-85
2022/08/10 10:24:06;;;;;;;5.33;1.93;;;36.60;24.20;;;;;;5075192;28;20564;-86
2022/08/10 10:26:47;;;;;;;2.90;1.60;;;35.70;25.60;;;;;;5079464;28;20448;-88
2022/08/10 10:29:28;;;;;;;4.03;2.07;;;36.30;26.00;;;;;;5077179;28;20438;-88
2022/08/10 10:32:01;;;;;;;2.20;1.80;;;36.40;26.50;;;;;;5084289;22;20508;-85
2022/08/10 10:34:35;;;;;;;3.37;2.27;;;37.50;25.70;;;;;;5048958;28;20888;-87
2022/08/10 10:37:06;;;;;;;4.23;3.90;;;37.80;25.00;;;;;;5051223;28;20447;-86
2022/08/10 10:39:34;;;;;;;21.10;19.10;;;37.80;25.20;;;;;;5044102;28;20444;-85
2022/08/10 10:42:29;;;;;;;5.20;4.70;;;37.50;25.40;;;;;;5037225;28;20472;-85
2022/08/10 10:45:10;;;;;;;2.03;1.70;;;37.00;26.20;;;;;;5036255;28;20453;-85
2022/08/10 10:47:59;;;;;;;2.33;2.00;;;36.40;26.80;;;;;;5036175;28;20451;-85
2022/08/10 10:50:34;;;;;;;2.27;2.07;;;36.80;26.30;;;;;;5040038;28;20461;-84
2022/08/10 10:53:09;;;;;;;2.17;1.70;;;36.50;26.50;;;;;;5037048;28;20824;-85
2022/08/10 10:55:45;;;;;;;3.40;1.83;;;37.60;25.40;;;;;;5036773;28;20484;-85
2022/08/10 10:58:19;;;;;;;2.47;1.70;;;39.20;23.80;;;;;;5037730;28;20832;-85
2022/08/10 11:00:56;;;;;;;3.07;1.97;;;38.90;23.50;;;;;;5036397;28;20468;-86
2022/08/10 11:03:40;;;;;;;1.93;1.70;;;39.50;23.40;;;;;;5045995;28;20448;-85
2022/08/10 11:06:22;;;;;;;2.13;1.70;;;40.30;22.90;;;;;;5037212;28;20444;-85
2022/08/10 11:08:55;;;;;;;1.80;1.60;;;39.90;22.90;;;;;;5035833;28;20876;-84
2022/08/10 11:11:28;;;;;;;2.20;1.90;;;39.40;22.60;;;;;;5039635;28;20480;-84
2022/08/10 11:14:08;;;;;;;3.00;2.23;;;38.70;23.00;;;;;;5054744;28;20459;-87
2022/08/10 11:16:42;;;;;;;2.50;1.83;;;38.70;23.30;;;;;;5037625;28;20436;-85
2022/08/10 11:19:16;;;;;;;2.60;2.00;;;38.10;24.00;;;;;;5036445;28;21004;-86
2022/08/10 11:21:55;;;;;;;1.87;1.67;;;37.00;24.70;;;;;;5036185;28;20471;-85
2022/08/10 11:24:32;;;;;;;2.00;1.67;;;37.90;24.70;;;;;;5036601;28;20483;-85
2022/08/10 11:27:08;;;;;;;4.73;1.80;;;37.60;24.50;;;;;;5035566;28;20547;-86
2022/08/10 11:29:44;;;;;;;3.27;1.90;;;36.70;24.90;;;;;;5035177;28;20452;-85
2022/08/10 11:32:18;;;;;;;3.43;1.90;;;36.90;25.20;;;;;;5035116;28;20995;-85
2022/08/10 11:34:53;;;;;;;1.70;1.60;;;37.10;25.30;;;;;;5035349;28;20483;-86
2022/08/10 11:37:29;;;;;;;2.47;1.60;;;38.80;24.20;;;;;;5035039;28;20946;-84
2022/08/10 11:40:01;;;;;;;2.83;1.90;;;38.40;24.00;;;;;;5036597;28;20443;-84
2022/08/10 11:42:39;;;;;;;2.83;1.53;;;37.80;24.70;;;;;;5038299;28;20472;-85
2022/08/10 11:45:10;;;;;;;2.10;1.53;;;37.60;24.90;;;;;;5042888;28;20450;-85
2022/08/10 11:47:44;;;;;;;3.13;1.83;;;37.40;24.80;;;;;;5035773;28;20917;-85
2022/08/10 11:50:20;;;;;;;2.20;1.73;;;38.10;24.20;;;;;;5044611;28;20448;-85
2022/08/10 11:52:56;;;;;;;2.43;2.23;;;37.90;24.30;;;;;;5045272;28;20478;-85
2022/08/10 11:55:26;;;;;;;3.27;2.20;;;38.30;24.50;;;;;;5057672;28;20456;-87
2022/08/10 11:57:57;;;;;;;2.30;2.10;;;38.90;24.10;;;;;;5060266;28;20478;-87
2022/08/10 12:00:24;;;;;;;3.03;2.10;;;38.70;24.10;;;;;;5048401;28;20454;-86
2022/08/10 12:02:56;;;;;;;2.27;2.07;;;39.00;23.80;;;;;;5056261;28;20802;-85
2022/08/10 12:05:26;;;;;;;2.73;2.00;;;39.60;23.20;;;;;;5059307;28;20434;-86
2022/08/10 12:07:55;;;;;;;2.17;1.83;;;39.60;23.50;;;;;;5060137;28;20448;-86
2022/08/10 12:10:24;;;;;;;1.97;1.70;;;39.90;23.20;;;;;;5050426;28;20452;-84
2022/08/10 12:12:58;;;;;;;3.00;2.10;;;40.10;23.30;;;;;;5043358;28;20969;-84
2022/08/10 12:15:32;;;;;;;3.10;1.70;;;39.50;23.40;;;;;;5035499;28;21082;-84
2022/08/10 12:18:04;;;;;;;2.90;1.87;;;39.90;23.20;;;;;;5035136;28;20816;-83
2022/08/10 12:20:35;;;;;;;2.03;1.37;;;39.60;23.00;;;;;;5034469;28;20498;-84
2022/08/10 12:23:10;;;;;;;4.40;1.70;;;40.60;22.60;;;;;;5034605;28;20881;-85
2022/08/10 12:25:44;;;;;;;3.10;1.70;;;40.80;22.30;;;;;;5034486;28;20444;-84
2022/08/10 12:28:17;;;;;;;3.10;2.07;;;40.90;22.40;;;;;;5040939;28;20476;-84
2022/08/10 12:30:50;;;;;;;3.60;1.80;;;41.10;21.90;;;;;;5044375;28;20472;-84
2022/08/10 12:33:23;;;;;;;6.30;2.30;;;42.00;21.50;;;;;;5035210;28;20479;-84
2022/08/10 12:35:59;;;;;;;2.20;2.00;;;42.70;21.00;;;;;;5034773;28;20528;-84
2022/08/10 12:38:36;;;;;;;1.60;1.50;;;42.10;21.70;;;;;;5043408;28;20455;-84
2022/08/10 12:41:09;;;;;;;1.90;1.60;;;40.00;22.20;;;;;;5066644;28;20437;-86
2022/08/10 12:43:43;;;;;;;4.50;2.10;;;39.60;23.00;;;;;;5064981;28;20436;-84
2022/08/10 12:46:15;;;;;;;3.20;1.80;;;40.20;22.60;;;;;;5054338;28;20440;-84
2022/08/10 12:48:53;;;;;;;2.53;1.67;;;40.30;22.60;;;;;;5052753;28;20452;-85
2022/08/10 12:51:23;;;;;;;2.77;1.80;;;39.90;22.30;;;;;;5043190;28;20465;-85
2022/08/10 12:53:56;;;;;;;3.30;1.60;;;39.80;22.40;;;;;;5042083;28;20448;-85
2022/08/10 12:56:26;;;;;;;3.70;1.83;;;39.90;22.30;;;;;;5045243;28;21967;-85
2022/08/10 12:58:54;;;;;;;2.60;1.63;;;40.10;22.40;;;;;;5071183;28;20436;-86
2022/08/10 13:01:24;;;;;;;2.30;1.83;;;40.10;22.20;;;;;;5057795;28;20464;-85
2022/08/10 13:03:57;;;;;;;2.20;1.70;;;40.00;22.30;;;;;;5042019;28;21055;-86
2022/08/10 13:06:24;;;;;;;2.70;2.50;;;40.10;22.30;;;;;;5041141;28;20455;-86
2022/08/10 13:09:08;;;;;;;2.17;1.77;;;39.90;22.30;;;;;;5045550;28;20456;-85